Atwell, West Virginia
Current Conditions -  °F | °C
As of 2:35 AM on Wednesday 22 Oct 2014 (Local Time) from KJFZ Reporting Station
Overcast Overcast  
Wind Chill: 39°   Ceiling: 900
Heat Index: 44°   Visibility: 10mi
Dew Point: 42°   Wind: 9mph
Humidity: 92%   Direction: 330°NNW
Pressure: 30.06"   Gusts: NA
Location:  37.3433°N, 81.7826°W
Report Text: KJFZ 220635Z AUTO 33008KT 10SM OVC009 07/05 A3006 RMK AO2 T00650053
Loading
Personal Weather Stations






























Interactive Weather Map
Tropical Storm Tracking
New forecast layout! Learn more

10-Day Weather Forecast

Advertisements
Track Severe Weather on mobile